Terminal Aerodrome Forecast
Issued by NWS Wilmington, NC

Home | Current Version | Previous Version | Text Only | Print | Product List | Glossary On
Versions: 1 2 3 4 5 6 7 8 9 10 11 12
000
FTUS42 KILM 211127
TAFFLO
TAF
KFLO 211127Z 2112/2212 07006KT P6SM SCT250
     FM211600 11007KT P6SM BKN250
     FM220900 09004KT 4SM BR BKN100=

USA.gov is the U.S. government's official web portal to all federal, state and local government web resources and services.